Time;durP1;ratioP1;P1;durP2;ratioP2;P2;SDS_P1;SDS_P2;PMS_P1;PMS_P2;Temp;Humidity;BMP_temperature;BMP_pressure;BME280_temperature;BME280_humidity;BME280_pressure;Samples;Min_cycle;Max_cycle;Signal;HPM_P1;HPM_P2
2023/05/24 00:00:23;;;;;;;10.23;5.75;;;;;;;13.92;100.00;98466.44;4485578;32;20097;-67
2023/05/24 00:02:51;;;;;;;9.38;4.78;;;;;;;13.93;100.00;98467.25;4485553;32;20123;-67
2023/05/24 00:05:18;;;;;;;7.35;5.00;;;;;;;13.91;100.00;98461.34;4485629;32;20168;-67
2023/05/24 00:07:45;;;;;;;10.50;5.32;;;;;;;13.90;100.00;98464.97;4485533;31;20097;-67
2023/05/24 00:10:13;;;;;;;8.73;5.18;;;;;;;13.88;100.00;98456.41;4485805;32;20191;-67
2023/05/24 00:12:40;;;;;;;10.60;5.55;;;;;;;13.88;100.00;98465.12;4479481;31;20096;-67
2023/05/24 00:15:07;;;;;;;12.70;5.60;;;;;;;13.84;100.00;98453.31;4473431;32;20099;-67
2023/05/24 00:17:39;;;;;;;10.77;5.95;;;;;;;13.82;100.00;98450.00;4485637;31;20106;-67
2023/05/24 00:20:09;;;;;;;8.45;5.28;;;;;;;13.80;100.00;98442.25;4485473;31;20146;-67
2023/05/24 00:22:38;;;;;;;10.20;5.65;;;;;;;13.77;100.00;98447.03;4485450;32;20533;-67
2023/05/24 00:25:05;;;;;;;13.00;5.95;;;;;;;13.74;100.00;98445.56;4485389;31;20449;-67
2023/05/24 00:27:33;;;;;;;12.93;5.50;;;;;;;13.71;100.00;98442.44;4485476;31;20135;-67
2023/05/24 00:30:00;;;;;;;8.40;4.93;;;;;;;13.65;100.00;98442.09;4485377;31;20114;-67
2023/05/24 00:32:27;;;;;;;8.10;5.53;;;;;;;13.63;100.00;98438.81;4485474;31;20092;-67
2023/05/24 00:34:55;;;;;;;11.80;5.45;;;;;;;13.64;100.00;98434.38;4485431;32;20150;-67
2023/05/24 00:37:23;;;;;;;8.32;5.37;;;;;;;13.62;100.00;98431.09;4485555;32;20092;-67
2023/05/24 00:39:50;;;;;;;8.13;5.15;;;;;;;13.62;100.00;98437.16;4485337;32;20093;-67
2023/05/24 00:42:17;;;;;;;7.50;5.03;;;;;;;13.63;100.00;98438.81;4485474;31;20100;-67
2023/05/24 00:44:44;;;;;;;9.25;4.75;;;;;;;13.64;100.00;98434.38;4485195;32;20483;-67
2023/05/24 00:47:12;;;;;;;7.18;4.93;;;;;;;13.64;100.00;98435.22;4485390;31;20096;-67
2023/05/24 00:49:39;;;;;;;13.18;5.87;;;;;;;13.74;100.00;98439.47;4485493;31;20477;-67
2023/05/24 00:52:07;;;;;;;11.77;5.65;;;;;;;13.76;100.00;98432.22;4485186;32;20092;-67
2023/05/24 00:54:34;;;;;;;14.07;6.50;;;;;;;13.83;100.00;98441.94;4485414;31;20163;-67
2023/05/24 00:57:02;;;;;;;13.13;7.32;;;;;;;13.85;100.00;98444.38;4485204;31;20115;-67
2023/05/24 00:59:30;;;;;;;11.75;7.35;;;;;;;13.86;100.00;98443.41;4485122;31;20168;-67
2023/05/24 01:01:57;;;;;;;14.82;8.43;;;;;;;13.87;100.00;98449.50;4485206;31;20123;-67
2023/05/24 01:04:24;;;;;;;16.48;8.63;;;;;;;13.89;100.00;98461.50;4485590;31;20119;-67
2023/05/24 01:07:15;;;;;;;16.90;8.55;;;;;;;13.87;100.00;98452.97;4485308;31;20100;-67
2023/05/24 01:09:46;;;;;;;20.67;9.13;;;;;;;13.86;100.00;98453.94;4484025;32;20089;-67
2023/05/24 01:12:48;;;;;;;18.87;9.50;;;;;;;13.88;100.00;98451.97;4477303;32;20085;-67
2023/05/24 01:15:19;;;;;;;18.98;10.52;;;;;;;13.89;100.00;98448.34;4462939;32;20122;-67
2023/05/24 01:18:00;;;;;;;18.35;10.05;;;;;;;13.85;100.00;98452.28;4484119;32;20188;-67
2023/05/24 01:20:31;;;;;;;18.77;10.10;;;;;;;13.84;100.00;98451.47;4483887;32;20413;-67
2023/05/24 01:23:02;;;;;;;21.00;10.80;;;;;;;13.82;100.00;98440.31;4483666;32;20092;-67
2023/05/24 01:26:03;;;;;;;23.40;9.98;;;;;;;13.84;100.00;98440.13;4485179;31;20084;-67
2023/05/24 01:28:33;;;;;;;16.70;9.80;;;;;;;13.81;100.00;98440.47;4485166;31;20088;-67
2023/05/24 01:31:00;;;;;;;17.17;9.23;;;;;;;13.81;100.00;98445.72;4483064;32;20096;-67
2023/05/24 01:33:29;;;;;;;18.12;9.98;;;;;;;13.77;100.00;98439.16;4484964;31;20097;-67
2023/05/24 01:35:57;;;;;;;20.73;11.27;;;;;;;13.73;100.00;98443.09;4484988;31;20108;-67
2023/05/24 01:38:24;;;;;;;23.90;11.82;;;;;;;13.73;100.00;98437.81;4484825;31;20116;-67
2023/05/24 01:40:58;;;;;;;22.52;12.43;;;;;;;13.75;100.00;98434.03;4485155;31;20168;-67
2023/05/24 01:43:39;;;;;;;23.92;11.85;;;;;;;13.77;100.00;98428.63;4483503;32;20073;-67
2023/05/24 01:46:21;;;;;;;23.35;12.25;;;;;;;13.79;100.00;98432.72;4483611;32;20100;-67
2023/05/24 01:48:55;;;;;;;22.70;11.45;;;;;;;13.82;100.00;98431.56;4484875;31;20501;-67
2023/05/24 01:51:23;;;;;;;17.25;10.00;;;;;;;13.74;100.00;98421.06;4470466;32;20092;-67
2023/05/24 01:53:51;;;;;;;15.90;9.25;;;;;;;13.69;100.00;98426.81;4483359;32;20377;-67
2023/05/24 01:56:19;;;;;;;17.98;9.75;;;;;;;13.70;100.00;98431.09;4483403;32;20123;-67
2023/05/24 01:58:50;;;;;;;17.90;9.88;;;;;;;13.68;100.00;98417.25;4484717;31;20100;-67
2023/05/24 02:01:18;;;;;;;17.98;10.38;;;;;;;13.66;100.00;98414.78;4483505;32;20104;-67
2023/05/24 02:03:46;;;;;;;21.62;11.05;;;;;;;13.65;100.00;98426.31;4483326;32;20137;-67
2023/05/24 02:06:13;;;;;;;24.70;12.20;;;;;;;13.64;100.00;98429.94;4484515;31;20139;-67
2023/05/24 02:08:40;;;;;;;23.73;12.73;;;;;;;13.64;100.00;98424.69;4484506;31;20096;-67
2023/05/24 02:11:10;;;;;;;25.45;14.00;;;;;;;13.63;100.00;98425.66;4484675;31;20104;-67
2023/05/24 02:13:37;;;;;;;30.05;12.95;;;;;;;13.57;100.00;98428.94;4472083;31;20153;-67
2023/05/24 02:16:05;;;;;;;28.48;13.27;;;;;;;13.55;100.00;98430.94;4478567;32;20151;-67
2023/05/24 02:18:33;;;;;;;27.33;13.93;;;;;;;13.53;100.00;98432.06;4484326;31;20155;-67
2023/05/24 02:21:01;;;;;;;27.92;14.05;;;;;;;13.52;100.00;98426.00;4484415;31;20538;-67
2023/05/24 02:23:29;;;;;;;32.88;14.73;;;;;;;13.55;100.00;98430.94;4484325;31;20076;-67
2023/05/24 02:25:58;;;;;;;32.75;15.95;;;;;;;13.53;100.00;98435.53;4484423;31;20180;-67
2023/05/24 02:28:25;;;;;;;28.73;15.15;;;;;;;13.57;100.00;98425.50;4484482;31;20100;-67
2023/05/24 02:30:52;;;;;;;31.62;16.02;;;;;;;13.55;100.00;98425.66;4484086;31;20088;-67
2023/05/24 02:33:20;;;;;;;32.42;15.13;;;;;;;13.54;100.00;98424.03;4484102;31;20203;-67
2023/05/24 02:35:47;;;;;;;30.25;15.82;;;;;;;13.52;100.00;98420.75;4484160;31;20419;-67
2023/05/24 02:38:14;;;;;;;32.10;15.57;;;;;;;13.54;100.00;98423.19;4484045;31;20119;-67
2023/05/24 02:40:42;;;;;;;31.10;16.02;;;;;;;13.56;100.00;98419.41;4484226;31;20575;-67
2023/05/24 02:43:09;;;;;;;32.15;15.63;;;;;;;13.57;100.00;98413.16;4485099;31;20424;-67
2023/05/24 02:45:37;;;;;;;31.50;16.10;;;;;;;13.58;100.00;98409.56;4486283;32;20113;-67
2023/05/24 02:48:04;;;;;;;33.53;16.23;;;;;;;13.60;100.00;98406.75;4486069;31;20152;-67
2023/05/24 02:50:31;;;;;;;40.83;18.23;;;;;;;13.60;100.00;98404.94;4486232;31;20111;-67
2023/05/24 02:52:59;;;;;;;32.38;16.70;;;;;;;13.58;100.00;98403.44;4486083;31;20119;-67
2023/05/24 02:55:27;;;;;;;33.55;15.73;;;;;;;13.52;100.00;98410.22;4486344;31;20446;-67
2023/05/24 02:57:55;;;;;;;36.65;16.83;;;;;;;13.55;100.00;98411.66;4486258;31;20143;-67
2023/05/24 03:00:23;;;;;;;35.40;16.70;;;;;;;13.52;100.00;98406.75;4486075;32;20104;-67
2023/05/24 03:02:56;;;;;;;32.42;16.20;;;;;;;13.47;100.00;98415.13;4486242;32;20142;-67
2023/05/24 03:05:23;;;;;;;31.17;15.88;;;;;;;13.45;100.00;98412.66;4486082;31;20110;-67
2023/05/24 03:07:51;;;;;;;31.05;14.77;;;;;;;13.46;100.00;98416.13;4486205;32;20092;-67
2023/05/24 03:10:18;;;;;;;36.17;15.32;;;;;;;13.44;100.00;98415.47;4486249;32;20108;-67
2023/05/24 03:12:45;;;;;;;32.42;16.08;;;;;;;13.47;100.00;98428.28;4479177;31;20666;-67
2023/05/24 03:15:13;;;;;;;34.92;15.98;;;;;;;13.51;100.00;98426.97;4474754;32;20127;-67
2023/05/24 03:17:40;;;;;;;35.53;17.27;;;;;;;13.61;100.00;98425.00;4485886;31;20179;-67
2023/05/24 03:20:10;;;;;;;37.88;17.30;;;;;;;13.65;100.00;98430.75;4486080;31;20088;-67
2023/05/24 03:22:38;;;;;;;42.22;17.42;;;;;;;13.73;100.00;98435.19;4486227;31;20108;-67
2023/05/24 03:25:07;;;;;;;36.28;17.73;;;;;;;13.77;100.00;98428.63;4485764;31;20156;-67
2023/05/24 03:27:35;;;;;;;39.63;18.62;;;;;;;13.78;100.00;98430.28;4485874;31;20088;-67
2023/05/24 03:30:05;;;;;;;40.40;17.65;;;;;;;13.83;100.00;98427.94;4486099;31;20211;-67
2023/05/24 03:32:33;;;;;;;42.95;19.52;;;;;;;13.87;100.00;98424.00;4485920;31;20081;-67
2023/05/24 03:35:01;;;;;;;41.20;17.62;;;;;;;13.90;100.00;98428.94;4485750;31;20127;-67
2023/05/24 03:37:29;;;;;;;34.15;17.55;;;;;;;13.95;100.00;98433.69;4485876;31;20419;-67
2023/05/24 03:39:56;;;;;;;36.10;17.92;;;;;;;13.97;100.00;98436.97;4485752;31;20135;-67
2023/05/24 03:42:24;;;;;;;35.35;16.60;;;;;;;14.00;100.00;98429.59;4485978;32;20165;-67
2023/05/24 03:44:51;;;;;;;33.60;16.95;;;;;;;14.01;100.00;98433.03;4485818;32;20470;-67
2023/05/24 03:47:18;;;;;;;34.75;17.75;;;;;;;14.05;100.00;98436.13;4486002;31;20100;-67
2023/05/24 03:49:47;;;;;;;41.72;17.67;;;;;;;14.07;100.00;98434.19;4484419;32;20556;-67
2023/05/24 03:52:14;;;;;;;36.10;17.23;;;;;;;14.11;100.00;98438.94;4485899;32;20112;-67
2023/05/24 03:54:42;;;;;;;39.63;17.80;;;;;;;14.16;100.00;98438.44;4485598;31;20123;-67
2023/05/24 03:57:09;;;;;;;36.13;16.80;;;;;;;14.20;100.00;98447.63;4485579;31;20597;-67
2023/05/24 03:59:37;;;;;;;33.58;17.98;;;;;;;14.29;100.00;98453.69;4485369;31;20545;-67
2023/05/24 04:02:07;;;;;;;38.10;18.75;;;;;;;14.36;100.00;98449.41;4485606;32;20153;-67
2023/05/24 04:04:35;;;;;;;37.40;17.62;;;;;;;14.32;100.00;98443.66;4481602;31;20112;-67
2023/05/24 04:07:03;;;;;;;35.83;16.70;;;;;;;14.36;100.00;98447.59;4456487;32;20409;-67
2023/05/24 04:09:30;;;;;;;34.28;17.80;;;;;;;14.46;100.00;98455.31;4453512;32;20086;-67
2023/05/24 04:11:57;;;;;;;36.03;17.05;;;;;;;14.46;100.00;98452.69;4455220;32;20208;-67
2023/05/24 04:14:24;;;;;;;33.67;16.98;;;;;;;14.51;100.00;98446.91;4469776;32;20131;-67
2023/05/24 04:16:52;;;;;;;29.73;15.70;;;;;;;14.63;100.00;98444.75;4484576;32;20779;-67
2023/05/24 04:19:20;;;;;;;33.03;16.40;;;;;;;14.68;100.00;98445.84;4485545;31;20587;-67
2023/05/24 04:21:48;;;;;;;31.37;16.65;;;;;;;14.75;100.00;98450.44;4485325;32;20115;-67
2023/05/24 04:24:15;;;;;;;26.35;14.93;;;;;;;14.76;100.00;98449.47;4484462;31;20704;-67
2023/05/24 04:26:43;;;;;;;26.77;14.45;;;;;;;14.83;100.00;98453.87;4485170;32;20088;-67
2023/05/24 04:29:10;;;;;;;25.80;13.62;;;;;;;14.94;100.00;98460.56;4485056;31;20107;-67
2023/05/24 04:31:42;;;;;;;24.92;13.70;;;;;;;14.93;100.00;98456.31;4484990;31;20598;-67
2023/05/24 04:34:13;;;;;;;24.67;14.38;;;;;;;15.01;100.00;98456.25;4484260;31;20115;-67
2023/05/24 04:36:40;;;;;;;24.15;13.45;;;;;;;15.03;100.00;98456.09;4484895;31;20485;-67
2023/05/24 04:39:08;;;;;;;25.27;13.13;;;;;;;15.08;100.00;98448.50;4484923;31;20104;-67
2023/05/24 04:41:36;;;;;;;26.75;14.63;;;;;;;15.19;100.00;98460.47;4485267;31;20099;-67
2023/05/24 04:44:03;;;;;;;25.62;14.20;;;;;;;15.29;100.00;98457.56;4485156;31;20115;-67
2023/05/24 04:46:30;;;;;;;22.02;13.00;;;;;;;15.37;100.00;98463.63;4484525;32;20124;-67
2023/05/24 04:48:58;;;;;;;22.75;11.82;;;;;;;15.44;100.00;98469.84;4485493;31;20161;-67
2023/05/24 04:51:25;;;;;;;21.65;12.45;;;;;;;15.49;100.00;98464.06;4485206;31;20575;-67
2023/05/24 04:53:52;;;;;;;23.15;13.18;;;;;;;15.59;100.00;98461.16;4485292;31;20116;-67
2023/05/24 04:56:19;;;;;;;21.45;12.43;;;;;;;15.76;100.00;98467.13;4485174;31;20100;-67
2023/05/24 04:58:46;;;;;;;17.87;10.93;;;;;;;15.94;100.00;98469.47;4484724;31;20084;-67
2023/05/24 05:01:14;;;;;;;21.65;12.15;;;;;;;15.90;100.00;98474.31;4470083;32;20262;-67
2023/05/24 05:03:43;;;;;;;19.52;11.88;;;;;;;15.93;100.00;98475.78;4467702;32;20490;-67
2023/05/24 05:06:11;;;;;;;17.80;10.98;;;;;;;15.95;100.00;98482.50;4462435;32;20108;-65
2023/05/24 05:08:38;;;;;;;16.92;11.20;;;;;;;16.03;100.00;98475.53;4464750;32;20127;-67
2023/05/24 05:11:05;;;;;;;21.90;11.45;;;;;;;15.87;100.00;98479.13;4461925;32;20126;-67
2023/05/24 05:13:33;;;;;;;20.35;10.55;;;;;;;15.83;100.00;98488.41;4469604;32;20096;-67
2023/05/24 05:16:01;;;;;;;18.05;10.95;;;;;;;15.95;100.00;98492.25;4478542;32;20402;-67
2023/05/24 05:18:28;;;;;;;16.95;10.90;;;;;;;16.29;100.00;98489.16;4470528;31;20462;-67
2023/05/24 05:20:56;;;;;;;18.52;10.75;;;;;;;16.16;100.00;98498.69;4465071;32;20119;-66
2023/05/24 05:23:23;;;;;;;16.58;10.85;;;;;;;16.08;100.00;98497.78;4468531;32;20151;-68
2023/05/24 05:25:50;;;;;;;20.48;11.05;;;;;;;16.08;100.00;98497.78;4457935;32;20101;-68
2023/05/24 05:28:17;;;;;;;21.25;11.35;;;;;;;16.01;100.00;98503.94;4462658;32;20119;-68
2023/05/24 05:30:45;;;;;;;20.08;11.60;;;;;;;16.07;100.00;98496.12;4461636;32;20166;-67
2023/05/24 05:33:12;;;;;;;20.70;11.52;;;;;;;16.16;100.00;98485.50;4463444;32;20108;-68
2023/05/24 05:35:40;;;;;;;18.42;11.68;;;;;;;16.16;100.00;98493.41;4462803;32;20091;-68
2023/05/24 05:38:07;;;;;;;19.30;11.25;;;;;;;16.28;100.00;98491.97;4459620;32;20109;-68
2023/05/24 05:40:34;;;;;;;16.90;9.85;;;;;;;16.44;100.00;98499.75;4465773;32;20115;-68
2023/05/24 05:43:03;;;;;;;18.02;11.63;;;;;;;16.28;100.00;98491.97;4461732;32;20478;-68
2023/05/24 05:45:30;;;;;;;17.33;11.88;;;;;;;16.14;100.00;98494.41;4462246;32;20164;-69
2023/05/24 05:47:57;;;;;;;19.15;12.65;;;;;;;16.21;100.00;98496.31;4464949;32;20142;-65
2023/05/24 05:50:25;;;;;;;17.08;12.10;;;;;;;16.24;100.00;98502.06;4464890;32;20127;-66
2023/05/24 05:52:52;;;;;;;20.08;11.63;;;;;;;16.46;100.00;98504.84;4461475;32;20104;-67
2023/05/24 05:55:20;;;;;;;18.27;11.43;;;;;;;16.49;100.00;98502.66;4462414;32;20104;-67
2023/05/24 05:57:48;;;;;;;20.50;11.43;;;;;;;16.54;100.00;98503.94;4461579;32;20097;-66
2023/05/24 06:00:15;;;;;;;18.55;10.98;;;;;;;16.54;100.00;98517.16;4463937;32;20156;-66
2023/05/24 06:02:43;;;;;;;19.87;12.02;;;;;;;16.58;100.00;98508.69;4467656;32;20447;-66
2023/05/24 06:05:10;;;;;;;21.48;11.55;;;;;;;16.79;100.00;98513.22;4467222;32;20096;-67
2023/05/24 06:07:39;;;;;;;20.35;10.82;;;;;;;16.88;100.00;98508.69;4455585;32;20176;-67
2023/05/24 06:10:06;;;;;;;16.62;10.75;;;;;;;16.83;100.00;98514.47;4461406;32;20588;-67
2023/05/24 06:12:34;;;;;;;18.35;10.70;;;;;;;16.90;100.00;98506.69;4462186;32;20105;-67
2023/05/24 06:15:01;;;;;;;16.00;10.20;;;;;;;16.92;100.00;98514.44;4459628;32;20108;-66
2023/05/24 06:17:29;;;;;;;17.87;9.95;;;;;;;17.01;100.00;98515.97;4443047;32;20105;-67
2023/05/24 06:19:56;;;;;;;13.90;9.75;;;;;;;16.93;100.00;98521.38;4461220;32;20116;-66
2023/05/24 06:22:24;;;;;;;13.73;9.52;;;;;;;17.04;100.00;98518.25;4460444;32;20153;-66
2023/05/24 06:24:51;;;;;;;19.55;10.20;;;;;;;17.10;100.00;98516.69;4462624;32;20088;-67
2023/05/24 06:27:18;;;;;;;19.87;10.60;;;;;;;17.04;100.00;98510.31;4463961;32;20097;-68
2023/05/24 06:29:45;;;;;;;15.13;9.77;;;;;;;17.03;100.00;98521.87;4464635;32;20093;-64
2023/05/24 06:32:13;;;;;;;17.12;10.00;;;;;;;16.94;100.00;98521.19;4459434;32;20116;-65
2023/05/24 06:34:40;;;;;;;17.90;10.23;;;;;;;17.10;100.00;98522.00;4463960;32;20147;-66
2023/05/24 06:37:13;;;;;;;14.82;9.98;;;;;;;17.02;100.00;98525.56;4463779;32;20123;-66
2023/05/24 06:39:41;;;;;;;14.43;9.98;;;;;;;17.16;100.00;98524.69;4465024;32;20153;-65
2023/05/24 06:42:10;;;;;;;14.35;9.90;;;;;;;17.07;100.00;98528.47;4463481;32;20219;-66
2023/05/24 06:44:37;;;;;;;15.50;10.18;;;;;;;17.08;100.00;98532.75;4460899;32;20123;-66
2023/05/24 06:47:05;;;;;;;17.95;9.93;;;;;;;16.95;100.00;98535.22;4464404;32;20108;-66
2023/05/24 06:49:33;;;;;;;15.70;10.55;;;;;;;17.02;100.00;98536.97;4465201;32;20156;-66
2023/05/24 06:52:01;;;;;;;15.10;9.98;;;;;;;17.16;100.00;98531.84;4458195;32;20159;-66
2023/05/24 06:54:28;;;;;;;20.88;10.27;;;;;;;17.29;100.00;98536.44;4457144;32;20104;-66
2023/05/24 06:56:55;;;;;;;13.95;9.45;;;;;;;17.32;100.00;98542.22;4464005;32;20105;-66
2023/05/24 06:59:23;;;;;;;15.82;10.48;;;;;;;17.27;100.00;98535.81;4465639;32;20111;-66
2023/05/24 07:01:56;;;;;;;13.80;9.43;;;;;;;17.22;100.00;98546.16;4461691;32;20105;-66
2023/05/24 07:04:25;;;;;;;15.90;9.85;;;;;;;17.07;100.00;98543.53;4458693;32;20543;-66
2023/05/24 07:06:53;;;;;;;17.17;9.15;;;;;;;17.23;100.00;98553.91;4462819;32;20154;-65
2023/05/24 07:09:20;;;;;;;15.50;9.55;;;;;;;17.36;100.00;98561.19;4460150;32;20114;-66
2023/05/24 07:11:47;;;;;;;15.98;9.63;;;;;;;17.37;100.00;98561.00;4460688;32;20131;-66
2023/05/24 07:14:15;;;;;;;14.63;9.65;;;;;;;17.45;100.00;98557.41;4464761;32;20595;-66
2023/05/24 07:16:44;;;;;;;17.12;9.77;;;;;;;17.53;100.00;98565.25;4463164;32;20139;-66
2023/05/24 07:19:12;;;;;;;12.40;8.68;;;;;;;17.62;100.00;98565.12;4462456;32;20105;-66
2023/05/24 07:21:40;;;;;;;17.77;9.30;;;;;;;17.65;100.00;98562.94;4456251;32;20108;-66
2023/05/24 07:24:07;;;;;;;18.05;8.57;;;;;;;17.95;100.00;98570.00;4461406;32;20157;-65
2023/05/24 07:26:35;;;;;;;13.32;8.82;;;;;;;17.91;100.00;98565.06;4459871;32;20172;-69
2023/05/24 07:29:03;;;;;;;14.10;9.70;;;;;;;17.86;100.00;98571.91;4464407;32;20124;-66
2023/05/24 07:31:33;;;;;;;14.10;9.07;;;;;;;18.07;100.00;98571.94;4456042;32;20573;-69
2023/05/24 07:34:00;;;;;;;13.62;8.32;;;;;;;18.16;100.00;98569.97;4461616;32;20236;-67
2023/05/24 07:36:31;;;;;;;13.80;8.88;;;;;;;18.21;100.00;98572.88;4458131;32;20131;-67
2023/05/24 07:39:04;;;;;;;16.08;9.77;;;;;;;18.35;100.00;98562.34;4461693;32;20458;-66
2023/05/24 07:41:33;;;;;;;14.13;9.65;;;;;;;18.49;100.00;98572.06;4462015;32;20154;-67
2023/05/24 07:44:01;;;;;;;14.87;9.07;;;;;;;18.74;100.00;98576.91;4458930;32;20168;-66
2023/05/24 07:46:28;;;;;;;12.45;8.10;;;;;;;18.90;100.00;98579.31;4459621;32;20291;-66
2023/05/24 07:49:03;;;;;;;16.05;9.02;;;;;;;18.96;100.00;98577.72;4462061;32;20155;-66
2023/05/24 07:51:31;;;;;;;18.30;8.95;;;;;;;18.81;100.00;98580.44;4460412;32;20112;-66
2023/05/24 07:53:59;;;;;;;13.85;9.43;;;;;;;18.71;100.00;98578.16;4462043;32;20156;-66
2023/05/24 07:56:26;;;;;;;12.65;8.65;;;;;;;18.92;100.00;98585.22;4458225;32;20057;-66
2023/05/24 07:58:58;;;;;;;12.35;8.75;;;;;;;19.03;100.00;98580.38;4458663;32;20148;-68
2023/05/24 08:01:25;;;;;;;18.48;8.85;;;;;;;19.10;100.00;98586.56;4460754;32;20170;-66
2023/05/24 08:03:53;;;;;;;22.27;9.43;;;;;;;19.12;100.00;98580.03;4464355;32;20194;-66
2023/05/24 08:06:21;;;;;;;13.65;8.57;;;;;;;19.15;100.00;98589.44;4456896;32;20173;-66
2023/05/24 08:08:49;;;;;;;10.80;8.23;;;;;;;19.36;100.00;98587.69;4461180;32;20108;-66
2023/05/24 08:11:16;;;;;;;11.12;8.07;;;;;;;19.63;100.00;98586.75;4463385;32;20118;-65
2023/05/24 08:13:47;;;;;;;12.70;8.63;;;;;;;19.54;100.00;98597.78;4462287;32;20880;-66
2023/05/24 08:16:14;;;;;;;15.35;8.30;;;;;;;19.59;100.00;98598.81;4460170;32;20165;-66
2023/05/24 08:18:41;;;;;;;12.20;8.23;;;;;;;19.79;100.00;98600.75;4460642;32;20113;-66
2023/05/24 08:21:08;;;;;;;12.20;8.20;;;;;;;19.70;100.00;98605.41;4458758;32;20115;-66
2023/05/24 08:23:35;;;;;;;15.35;8.25;;;;;;;19.67;100.00;98603.94;4459777;32;20126;-66
2023/05/24 08:26:05;;;;;;;13.23;8.25;;;;;;;19.63;100.00;98612.53;4455922;32;20156;-66
2023/05/24 08:28:32;;;;;;;17.45;8.85;;;;;;;19.93;100.00;98606.91;4461134;32;20684;-65
2023/05/24 08:30:59;;;;;;;10.07;7.40;;;;;;;19.83;100.00;98613.44;4462176;32;20093;-66
2023/05/24 08:33:28;;;;;;;11.05;8.15;;;;;;;19.97;100.00;98608.13;4462732;32;20119;-66
2023/05/24 08:35:56;;;;;;;15.43;8.43;;;;;;;20.23;100.00;98615.34;4460139;32;20533;-66
2023/05/24 08:38:23;;;;;;;10.93;7.25;;;;;;;20.14;100.00;98613.91;4460317;32;20123;-66
2023/05/24 08:40:50;;;;;;;10.45;7.87;;;;;;;20.11;100.00;98614.31;4458449;32;20096;-66
2023/05/24 08:43:18;;;;;;;9.80;7.53;;;;;;;20.11;100.00;98609.00;4460731;32;20475;-66
2023/05/24 08:45:45;;;;;;;9.85;7.55;;;;;;;20.18;100.00;98615.13;4446941;32;20105;-66
2023/05/24 08:48:14;;;;;;;9.77;6.45;;;;;;;19.76;100.00;98617.06;4463515;32;20115;-66
2023/05/24 08:50:42;;;;;;;11.77;6.75;;;;;;;20.12;100.00;98615.94;4453544;32;20109;-65
2023/05/24 08:53:10;;;;;;;9.60;7.10;;;;;;;19.81;100.00;98630.59;4461297;32;20506;-66
2023/05/24 08:55:38;;;;;;;11.40;6.35;;;;;;;20.17;100.00;98621.47;4454027;32;20101;-66
2023/05/24 08:58:05;;;;;;;10.88;6.32;;;;;;;20.00;100.00;98629.84;4461413;32;20114;-66
2023/05/24 09:00:32;;;;;;;8.60;6.28;;;;;;;19.78;100.00;98631.81;4453163;32;20089;-65
2023/05/24 09:03:00;;;;;;;9.45;6.82;;;;;;;19.93;100.00;98636.97;4456537;32;20135;-66
2023/05/24 09:05:29;;;;;;;10.98;6.95;;;;;;;19.64;100.00;98641.56;4460731;32;20088;-66
2023/05/24 09:07:59;;;;;;;10.77;6.53;;;;;;;19.86;100.00;98638.78;4452964;32;20097;-66
2023/05/24 09:10:28;;;;;;;11.60;6.22;;;;;;;19.93;100.00;98638.81;4459224;32;20120;-66
2023/05/24 09:13:07;;;;;;;9.20;5.80;;;;;;;20.58;100.00;98641.75;4462842;32;20171;-66
2023/05/24 09:15:35;;;;;;;8.93;6.15;;;;;;;20.57;100.00;98645.44;4455335;32;20101;-66
2023/05/24 09:18:02;;;;;;;11.25;5.78;;;;;;;20.12;100.00;98647.84;4452797;32;20192;-66
2023/05/24 09:20:29;;;;;;;8.35;6.72;;;;;;;20.01;100.00;98655.38;4462926;32;20112;-66
2023/05/24 09:22:58;;;;;;;8.95;6.12;;;;;;;20.14;100.00;98661.78;4461443;32;20108;-66
2023/05/24 09:25:27;;;;;;;7.22;5.65;;;;;;;20.20;100.00;98660.97;4454485;32;20168;-65
2023/05/24 09:27:55;;;;;;;10.85;6.10;;;;;;;20.21;100.00;98662.59;4461872;32;20189;-65
2023/05/24 09:30:22;;;;;;;9.95;6.57;;;;;;;20.12;100.00;98661.13;4459960;32;20116;-66
2023/05/24 09:33:00;;;;;;;9.02;5.60;;;;;;;20.11;100.00;98660.31;4459204;32;20111;-66
2023/05/24 09:35:28;;;;;;;9.52;5.62;;;;;;;20.15;100.00;98648.28;4456652;32;20123;-66
2023/05/24 09:37:58;;;;;;;8.88;6.57;;;;;;;20.03;100.00;98650.69;4461449;32;20152;-65
2023/05/24 09:40:28;;;;;;;7.95;6.10;;;;;;;19.92;100.00;98651.28;4461901;32;20124;-67
2023/05/24 09:43:09;;;;;;;9.85;5.78;;;;;;;20.25;100.00;98647.88;4462554;32;20115;-66
2023/05/24 09:45:45;;;;;;;11.88;6.20;;;;;;;20.59;100.00;98651.37;4460451;32;20121;-67
2023/05/24 09:48:16;;;;;;;8.30;5.25;;;;;;;20.91;100.00;98647.06;4462218;32;20096;-66
2023/05/24 09:50:46;;;;;;;10.57;5.70;;;;;;;21.22;100.00;98653.56;4455910;32;20778;-66
2023/05/24 09:53:16;;;;;;;9.70;6.43;;;;;;;20.75;100.00;98647.50;4459527;32;20107;-67
2023/05/24 09:55:45;;;;;;;9.23;6.03;;;;;;;20.60;100.00;98646.88;4458074;32;20104;-66
2023/05/24 09:58:12;;;;;;;8.27;5.22;;;;;;;20.56;100.00;98651.78;4459198;32;20132;-67
2023/05/24 10:00:41;;;;;;;7.20;5.62;;;;;;;20.82;100.00;98648.31;4456419;32;169029;-68
2023/05/24 10:03:11;;;;;;;8.07;5.57;;;;;;;21.18;100.00;98647.03;4468144;32;20474;-67
2023/05/24 10:05:44;;;;;;;8.85;5.07;;;;;;;20.80;100.00;98657.53;4464549;32;20100;-66
2023/05/24 10:08:13;;;;;;;7.78;5.78;;;;;;;20.95;100.00;98652.00;4468145;32;20198;-66
2023/05/24 10:10:41;;;;;;;6.40;5.28;;;;;;;20.64;100.00;98656.09;4466207;32;20117;-67
2023/05/24 10:13:09;;;;;;;10.93;5.32;;;;;;;20.61;100.00;98652.00;4464958;32;20168;-67
2023/05/24 10:15:37;;;;;;;10.23;5.43;;;;;;;20.95;100.00;98652.81;4460200;32;20108;-67
2023/05/24 10:18:07;;;;;;;12.48;5.78;;;;;;;20.97;100.00;98647.25;4460779;32;20792;-66
2023/05/24 10:20:39;;;;;;;8.63;5.47;;;;;;;20.70;100.00;98653.44;4461525;32;21226;-67
2023/05/24 10:23:09;;;;;;;8.63;5.97;;;;;;;20.70;100.00;98661.44;4466221;32;20092;-66
2023/05/24 10:25:40;;;;;;;7.53;5.32;;;;;;;20.86;100.00;98659.37;4466699;32;20097;-68
2023/05/24 10:28:11;;;;;;;6.25;4.93;;;;;;;21.07;100.00;98645.84;4464211;32;20089;-68
2023/05/24 10:30:43;;;;;;;10.25;6.97;;;;;;;21.18;100.00;98652.37;4460540;32;20101;-67
2023/05/24 10:33:12;;;;;;;8.82;4.90;;;;;;;21.38;100.00;98652.31;4462975;32;20495;-67
2023/05/24 10:35:41;;;;;;;13.15;8.68;;;;;;;21.31;100.00;98646.16;4463924;32;20594;-68
2023/05/24 10:38:09;;;;;;;10.57;7.25;;;;;;;21.25;100.00;98645.16;4449073;32;20514;-68
2023/05/24 10:40:41;;;;;;;6.45;5.00;;;;;;;21.13;100.00;98648.69;4463210;32;20152;-66
2023/05/24 10:43:09;;;;;;;9.40;5.85;;;;;;;21.17;100.00;98637.41;4462696;32;20105;-67
2023/05/24 10:45:37;;;;;;;8.38;5.82;;;;;;;21.39;100.00;98648.62;4461862;32;20096;-66
2023/05/24 10:48:12;;;;;;;12.98;8.52;;;;;;;21.20;100.00;98638.84;4463409;32;21111;-67
2023/05/24 10:50:40;;;;;;;8.18;5.12;;;;;;;21.35;100.00;98639.41;4459820;32;20105;-66
2023/05/24 10:53:10;;;;;;;6.00;4.35;;;;;;;21.61;100.00;98633.16;4462349;32;20122;-66
2023/05/24 10:55:57;;;;;;;5.50;4.85;;;;;;;21.95;100.00;98641.84;4459374;32;20089;-66
2023/05/24 10:58:31;;;;;;;5.35;4.35;;;;;;;21.77;100.00;98647.88;4463818;32;20131;-67
2023/05/24 11:00:58;;;;;;;5.40;4.12;;;;;;;21.79;100.00;98637.00;4455015;32;20104;-68
2023/05/24 11:03:32;;;;;;;5.40;4.30;;;;;;;21.61;100.00;98635.03;4465045;32;20194;-66
2023/05/24 11:05:59;;;;;;;4.70;4.13;;;;;;;21.86;100.00;98627.09;4462021;32;20538;-66
2023/05/24 11:08:34;;;;;;;8.27;4.90;;;;;;;21.72;99.20;98631.69;4465433;32;20628;-66
2023/05/24 11:11:11;;;;;;;7.72;4.45;;;;;;;21.62;100.00;98631.34;4464390;32;20084;-65
2023/05/24 11:13:56;;;;;;;8.15;4.20;;;;;;;21.77;100.00;98644.37;4466013;32;20096;-65
2023/05/24 11:16:36;;;;;;;12.43;4.50;;;;;;;21.94;100.00;98640.19;4466090;32;20142;-66
2023/05/24 11:19:21;;;;;;;5.93;4.30;;;;;;;22.18;98.26;98634.28;4467513;32;20568;-65
2023/05/24 11:21:51;;;;;;;5.75;4.12;;;;;;;22.10;100.00;98638.84;4463860;32;20088;-66